Powderly, KY (42367)

7:49 PM CDT on October 15, 2019 (GMT -0500)
Banyan Tree Station | | Change Station

Elev 446 ft 37.30 °N, 87.15 °W | Updated 19 seconds ago

Overcast
Overcast
70.5 °F
Feels Like 70 °F
N
3
Wind Variable Wind from West
Gusts 3.0 mph

Today
High -- | Low -- °F
--% Chance of Precip.
Yesterday
High -- | Low -- °F
Precip. -- in
Pressure 29.84 in
Visibility 9.0 miles
Clouds Mostly Cloudy 4100 ft
Overcast 5500 ft
Heat Index 70 °F
Dew Point 65 °F
Humidity 83%
Rainfall 0.00 in
Snow Depth Not available.
6:56 AM 6:11 PM
Waning Gibbous, 96% visible
METAR KOWB 152356Z 21005KT 9SM BKN041 OVC055 21/16 A2984 RMK AO2 LTG DSNT NW SLP105 T02110161 10267 20211 58005
Pressure 29.84 in
Visibility 9.0 miles
Clouds Mostly Cloudy 4100 ft
Overcast 5500 ft
Heat Index 70 °F
Dew Point 65 °F
Humidity 83%
Rainfall 0.00 in
Snow Depth Not available.
6:56 AM 6:11 PM
Waning Gibbous, 96% visible
METAR KOWB 152356Z 21005KT 9SM BKN041 OVC055 21/16 A2984 RMK AO2 LTG DSNT NW SLP105 T02110161 10267 20211 58005

Get Severe Weather Alerts

Thanks for signing up!

Be on the lookout for a verification email in your inbox.

You'll start receiving the daily forecast at 6 AM.

×

10-Day Weather Forecast

Almanac

Astronomy

Oct. 15, 2019 Rise Set
Actual Time
Civil Twilight
Nautical Twilight
Astronomical Twilight
Moon
Length of Visible Light
Length of Day
Tomorrow will be .
, % of the Moon is Illuminated

Today's Extremes

State Highs State Lows

Community

WunderPhotos

Category 6

Welcome to Category 6. This is the collective home for Weather Underground's featured writeups by Dr. Jeff Masters (right), Bob Henson (left), Chris Burt, and other regular contributors.

Nearby

Air Quality

  Air Quality AQ Index Pollutant
Not available.

Snow Depth

Station Depth Elevation

Earthquake Activity

City Distance Mag. Time & Date
Minimum magnitude displayed is 2.5.

Coastal Water Temperatures

Place Temperature

Stations

Nearby Weather Stations

Station Location Temp. Windchill Dew Point Humidity Wind Precip. Elev Updated Type
                   

Watches & Warnings

There are currently no watches in effect.